Aérodrome :
LOGIN :

S'inscrire | Disclaimer

   EN    FR    IT 

 










Légende :    VFR   VFR Marginal   IFR   IFR Intensif   IFR Très Intensif
Visi : 
Plafond : 
>= 8 km
>= 3000ft
5 à 8 km
1000 à 3000 ft
1500m à 5 km
500 à 1000 ft
800 à 1500m
200 à 500 ft
< 800m
< 200 ft
Symboles :   Orages  Brouillard  Fortes neiges  Fortes précipitations  Vent > 20 kt
SIGMETs :   Divers  Orages  Givrage  Turbulence  Onde Orograph.  Cendres Volcan.







- Altitude de l'aérodrome : 2044 ft


ETSA - Landsberg-Lech AB

DERNIER METAR :
  • 180620Z 16007KT 9999 FEW025 BKN110 M03/M06 Q1020 BLU BLU

METARs EXPIRÉS :
  • 180520Z 15007KT 9999 FEW030 BKN120 M03/M05 Q1021 BLU BLU
  • 180510Z 15006KT 9999 FEW030 BKN120 M03/M05 Q1021 BLU BLU
  • 180420Z AUTO 16005KT 4200 // ////// M03/M05 Q1021 ///

TAF TAF ETSA
Valide du 18 à 06h jusqu'au 18 à 18h UTC


180521Z 1806/1818 15008KT 9999 NSW SCT030 BKN080
BECMG 1808/1810 10005KT 8000 NSW SCT020 BKN030
TEMPO 1810/1815 07008KT 3000 -SN BKN007 BKN020 BY ETGL
Pas de NOTAMs connus pour ce terrain.



MET'MAP, la Météo Aéronautique d'un coup d'oeil ! - Copyright ORBIFLY Décembre 2007 - Disclaimer

ORBIFLY MET'MAP TEAM :

Programmation & Développement : Alexandra Zaïnal
Conception & Développement : Baudouin d'Aumeries
Co-Programmation & Développement : Marc-Olivier Méhu
Soutien technique & logistique : Manuel Goepfert

Contact : metmap@orbifly.com




SOURCES & CREDITS :

   NOAA